sensor_id;sensor_type;location;lat;lon;timestamp;pressure;altitude;pressure_sealevel;temperature;humidity
71344;BME280;59146;43.850;25.948;2023-01-29T00:01:43;101440.28;;;1.37;89.03
71344;BME280;59146;43.850;25.948;2023-01-29T00:04:09;101383.94;;;1.01;89.25
71344;BME280;59146;43.850;25.948;2023-01-29T00:06:34;101434.34;;;1.29;89.31
71344;BME280;59146;43.850;25.948;2023-01-29T00:08:59;101430.78;;;1.40;89.06
71344;BME280;59146;43.850;25.948;2023-01-29T00:11:25;101418.72;;;1.47;88.85
71344;BME280;59146;43.850;25.948;2023-01-29T00:13:51;101471.81;;;1.65;87.74
71344;BME280;59146;43.850;25.948;2023-01-29T00:16:17;101487.28;;;1.63;88.41
71344;BME280;59146;43.850;25.948;2023-01-29T00:18:43;101417.22;;;1.25;89.23
71344;BME280;59146;43.850;25.948;2023-01-29T00:21:16;101485.50;;;1.68;89.17
71344;BME280;59146;43.850;25.948;2023-01-29T00:23:42;101473.56;;;1.58;88.64
71344;BME280;59146;43.850;25.948;2023-01-29T00:26:08;101436.00;;;1.36;88.83
71344;BME280;59146;43.850;25.948;2023-01-29T00:28:34;101471.75;;;1.69;87.91
71344;BME280;59146;43.850;25.948;2023-01-29T00:33:33;101444.69;;;1.23;88.39
71344;BME280;59146;43.850;25.948;2023-01-29T00:36:04;101496.84;;;1.46;88.95
71344;BME280;59146;43.850;25.948;2023-01-29T00:38:30;101523.34;;;1.63;89.71
71344;BME280;59146;43.850;25.948;2023-01-29T00:40:55;101477.16;;;1.42;89.16
71344;BME280;59146;43.850;25.948;2023-01-29T00:43:39;101506.91;;;1.75;88.74
71344;BME280;59146;43.850;25.948;2023-01-29T00:46:23;101456.66;;;1.27;87.91
71344;BME280;59146;43.850;25.948;2023-01-29T00:48:48;101520.81;;;1.51;89.00
71344;BME280;59146;43.850;25.948;2023-01-29T00:51:14;101463.44;;;1.37;89.32
71344;BME280;59146;43.850;25.948;2023-01-29T00:53:39;101526.66;;;1.74;88.84
71344;BME280;59146;43.850;25.948;2023-01-29T00:56:05;101524.09;;;1.76;88.57
71344;BME280;59146;43.850;25.948;2023-01-29T00:58:31;101502.69;;;1.66;88.52
71344;BME280;59146;43.850;25.948;2023-01-29T01:01:00;101491.56;;;1.59;87.98
71344;BME280;59146;43.850;25.948;2023-01-29T01:03:27;101453.19;;;1.34;88.06
71344;BME280;59146;43.850;25.948;2023-01-29T01:06:06;101445.59;;;1.14;88.43
71344;BME280;59146;43.850;25.948;2023-01-29T01:08:32;101443.88;;;1.16;89.09
71344;BME280;59146;43.850;25.948;2023-01-29T01:11:16;101477.09;;;1.48;88.83
71344;BME280;59146;43.850;25.948;2023-01-29T01:13:42;101486.41;;;1.63;88.79
71344;BME280;59146;43.850;25.948;2023-01-29T01:16:12;101508.69;;;1.70;88.28
71344;BME280;59146;43.850;25.948;2023-01-29T01:18:38;101451.28;;;1.54;87.67
71344;BME280;59146;43.850;25.948;2023-01-29T01:21:04;101472.75;;;1.54;87.05
71344;BME280;59146;43.850;25.948;2023-01-29T01:23:29;101454.81;;;1.41;88.17
71344;BME280;59146;43.850;25.948;2023-01-29T01:25:54;101506.97;;;1.69;88.13
71344;BME280;59146;43.850;25.948;2023-01-29T01:28:20;101529.13;;;1.88;87.83
71344;BME280;59146;43.850;25.948;2023-01-29T01:30:45;101459.88;;;1.53;87.01
71344;BME280;59146;43.850;25.948;2023-01-29T01:33:11;101500.94;;;1.71;86.80
71344;BME280;59146;43.850;25.948;2023-01-29T01:35:37;101497.53;;;1.69;86.11
71344;BME280;59146;43.850;25.948;2023-01-29T01:38:03;101356.75;;;0.71;86.69
71344;BME280;59146;43.850;25.948;2023-01-29T01:40:29;101509.69;;;1.49;87.60
71344;BME280;59146;43.850;25.948;2023-01-29T01:42:57;101356.78;;;0.63;87.38
71344;BME280;59146;43.850;25.948;2023-01-29T01:45:32;101536.97;;;1.74;86.99
71344;BME280;59146;43.850;25.948;2023-01-29T01:48:06;101504.38;;;1.70;86.73
71344;BME280;59146;43.850;25.948;2023-01-29T01:50:59;101512.00;;;1.81;86.17
71344;BME280;59146;43.850;25.948;2023-01-29T01:53:43;101446.38;;;1.27;85.99
71344;BME280;59146;43.850;25.948;2023-01-29T01:56:14;101518.25;;;1.51;87.02
71344;BME280;59146;43.850;25.948;2023-01-29T01:59:08;101523.38;;;1.55;87.26
71344;BME280;59146;43.850;25.948;2023-01-29T02:01:35;101458.50;;;1.13;87.12
71344;BME280;59146;43.850;25.948;2023-01-29T02:04:08;101510.47;;;1.63;87.09
71344;BME280;59146;43.850;25.948;2023-01-29T02:06:54;101454.81;;;1.41;86.45
71344;BME280;59146;43.850;25.948;2023-01-29T02:09:51;101455.75;;;1.35;86.76
71344;BME280;59146;43.850;25.948;2023-01-29T02:12:17;101460.97;;;1.25;87.08
71344;BME280;59146;43.850;25.948;2023-01-29T02:14:43;101458.41;;;1.25;87.37
71344;BME280;59146;43.850;25.948;2023-01-29T02:17:12;101446.38;;;1.24;86.99
71344;BME280;59146;43.850;25.948;2023-01-29T02:30:36;101484.13;;;1.26;87.28
71344;BME280;59146;43.850;25.948;2023-01-29T02:35:45;101425.16;;;0.95;87.05
71344;BME280;59146;43.850;25.948;2023-01-29T02:38:32;101443.09;;;1.04;86.73
71344;BME280;59146;43.850;25.948;2023-01-29T02:43:54;101513.09;;;1.57;86.15
71344;BME280;59146;43.850;25.948;2023-01-29T02:46:45;101540.59;;;1.50;87.77
71344;BME280;59146;43.850;25.948;2023-01-29T02:52:19;101531.91;;;1.62;87.65
71344;BME280;59146;43.850;25.948;2023-01-29T02:54:49;101539.59;;;1.70;86.60
71344;BME280;59146;43.850;25.948;2023-01-29T02:57:25;101462.66;;;1.26;85.95
71344;BME280;59146;43.850;25.948;2023-01-29T02:59:59;101512.31;;;1.46;86.47
71344;BME280;59146;43.850;25.948;2023-01-29T03:02:40;101463.66;;;1.10;87.20
71344;BME280;59146;43.850;25.948;2023-01-29T03:05:20;101539.78;;;1.41;87.27
71344;BME280;59146;43.850;25.948;2023-01-29T03:07:49;101546.53;;;1.58;87.70
71344;BME280;59146;43.850;25.948;2023-01-29T03:10:25;101548.16;;;1.70;86.30
71344;BME280;59146;43.850;25.948;2023-01-29T03:12:57;101489.19;;;1.37;86.34
71344;BME280;59146;43.850;25.948;2023-01-29T03:15:32;101526.91;;;1.44;86.69
71344;BME280;59146;43.850;25.948;2023-01-29T03:18:13;101462.00;;;1.00;87.44
71344;BME280;59146;43.850;25.948;2023-01-29T03:20:43;101501.19;;;1.36;86.79
71344;BME280;59146;43.850;25.948;2023-01-29T03:23:21;101549.00;;;1.71;85.88
71344;BME280;59146;43.850;25.948;2023-01-29T03:25:53;101543.97;;;1.57;85.96
71344;BME280;59146;43.850;25.948;2023-01-29T03:28:42;101468.00;;;0.99;86.82
71344;BME280;59146;43.850;25.948;2023-01-29T03:31:28;101473.13;;;1.05;86.93
71344;BME280;59146;43.850;25.948;2023-01-29T03:34:20;101507.25;;;1.28;85.68
71344;BME280;59146;43.850;25.948;2023-01-29T03:37:04;101438.81;;;1.03;85.47
71344;BME280;59146;43.850;25.948;2023-01-29T03:39:34;101486.78;;;1.17;85.43
71344;BME280;59146;43.850;25.948;2023-01-29T03:42:27;101427.84;;;0.73;86.07
71344;BME280;59146;43.850;25.948;2023-01-29T03:45:18;101544.00;;;1.54;85.84
71344;BME280;59146;43.850;25.948;2023-01-29T03:50:31;101562.84;;;1.59;85.28
71344;BME280;59146;43.850;25.948;2023-01-29T03:53:16;101556.94;;;1.40;85.71
71344;BME280;59146;43.850;25.948;2023-01-29T03:56:01;101492.84;;;1.06;85.98
71344;BME280;59146;43.850;25.948;2023-01-29T03:58:38;101528.69;;;1.36;86.13
71344;BME280;59146;43.850;25.948;2023-01-29T04:01:19;101533.75;;;1.45;86.00
71344;BME280;59146;43.850;25.948;2023-01-29T04:03:52;101496.19;;;1.15;85.14
71344;BME280;59146;43.850;25.948;2023-01-29T04:06:22;101444.16;;;0.69;85.80
71344;BME280;59146;43.850;25.948;2023-01-29T04:09:06;101555.31;;;1.32;86.58
71344;BME280;59146;43.850;25.948;2023-01-29T04:11:36;101539.84;;;1.30;86.41
71344;BME280;59146;43.850;25.948;2023-01-29T04:14:03;101550.16;;;1.32;85.87
71344;BME280;59146;43.850;25.948;2023-01-29T04:16:33;101564.78;;;1.30;85.94
71344;BME280;59146;43.850;25.948;2023-01-29T04:19:00;101490.41;;;0.82;86.38
71344;BME280;59146;43.850;25.948;2023-01-29T04:21:26;101503.22;;;0.91;86.86
71344;BME280;59146;43.850;25.948;2023-01-29T04:23:51;101563.00;;;1.35;86.40
71344;BME280;59146;43.850;25.948;2023-01-29T04:32:11;101540.84;;;1.10;86.32
71344;BME280;59146;43.850;25.948;2023-01-29T04:37:35;101581.88;;;1.40;85.96
71344;BME280;59146;43.850;25.948;2023-01-29T04:40:55;101581.81;;;1.46;85.19
71344;BME280;59146;43.850;25.948;2023-01-29T04:43:33;101582.78;;;1.24;85.44
71344;BME280;59146;43.850;25.948;2023-01-29T04:46:16;101543.41;;;1.14;86.20
71344;BME280;59146;43.850;25.948;2023-01-29T04:49:11;101582.69;;;1.40;85.82
71344;BME280;59146;43.850;25.948;2023-01-29T04:56:56;101527.97;;;1.11;85.12
71344;BME280;59146;43.850;25.948;2023-01-29T04:59:32;101564.72;;;1.36;85.70
71344;BME280;59146;43.850;25.948;2023-01-29T05:02:00;101511.69;;;1.08;85.15
71344;BME280;59146;43.850;25.948;2023-01-29T05:04:31;101477.53;;;0.85;84.61
71344;BME280;59146;43.850;25.948;2023-01-29T05:07:03;101534.84;;;1.11;84.86
71344;BME280;59146;43.850;25.948;2023-01-29T05:09:32;101603.28;;;1.43;85.18
71344;BME280;59146;43.850;25.948;2023-01-29T05:11:59;101596.44;;;1.36;85.05
71344;BME280;59146;43.850;25.948;2023-01-29T05:14:27;101425.47;;;0.40;85.21
71344;BME280;59146;43.850;25.948;2023-01-29T05:16:56;101579.25;;;1.43;84.28
71344;BME280;59146;43.850;25.948;2023-01-29T05:19:23;101563.88;;;1.35;83.70
71344;BME280;59146;43.850;25.948;2023-01-29T05:21:49;101584.50;;;1.26;84.13
71344;BME280;59146;43.850;25.948;2023-01-29T05:24:17;101538.41;;;0.86;84.79
71344;BME280;59146;43.850;25.948;2023-01-29T05:26:44;101569.09;;;1.20;85.01
71344;BME280;59146;43.850;25.948;2023-01-29T05:29:29;101598.03;;;1.60;83.85
71344;BME280;59146;43.850;25.948;2023-01-29T05:31:54;101566.50;;;1.22;83.38
71344;BME280;59146;43.850;25.948;2023-01-29T05:34:20;101557.97;;;1.17;84.09
71344;BME280;59146;43.850;25.948;2023-01-29T05:36:45;101556.31;;;1.08;84.73
71344;BME280;59146;43.850;25.948;2023-01-29T05:39:11;101585.31;;;1.37;84.09
71344;BME280;59146;43.850;25.948;2023-01-29T05:41:36;101635.75;;;1.67;83.33
71344;BME280;59146;43.850;25.948;2023-01-29T05:44:02;101564.78;;;1.27;82.56
71344;BME280;59146;43.850;25.948;2023-01-29T05:46:27;101596.44;;;1.36;83.28
71344;BME280;59146;43.850;25.948;2023-01-29T05:48:53;101558.00;;;1.08;83.53
71344;BME280;59146;43.850;25.948;2023-01-29T05:51:18;101605.84;;;1.43;83.62
71344;BME280;59146;43.850;25.948;2023-01-29T05:53:44;101634.00;;;1.71;83.12
71344;BME280;59146;43.850;25.948;2023-01-29T05:56:09;101568.19;;;1.29;82.61
71344;BME280;59146;43.850;25.948;2023-01-29T05:58:35;101559.78;;;1.00;83.51
71344;BME280;59146;43.850;25.948;2023-01-29T06:01:15;101652.09;;;1.60;83.81
71344;BME280;59146;43.850;25.948;2023-01-29T06:03:42;101643.50;;;1.67;83.44
71344;BME280;59146;43.850;25.948;2023-01-29T06:06:07;101656.34;;;1.70;82.31
71344;BME280;59146;43.850;25.948;2023-01-29T06:08:33;101665.78;;;1.68;82.60
71344;BME280;59146;43.850;25.948;2023-01-29T06:10:59;101650.38;;;1.65;82.37
71344;BME280;59146;43.850;25.948;2023-01-29T06:13:24;101670.06;;;1.75;82.03
71344;BME280;59146;43.850;25.948;2023-01-29T06:15:50;101678.56;;;1.85;82.20
71344;BME280;59146;43.850;25.948;2023-01-29T06:18:15;101663.28;;;1.60;82.02
71344;BME280;59146;43.850;25.948;2023-01-29T06:20:41;101688.13;;;1.69;82.44
71344;BME280;59146;43.850;25.948;2023-01-29T06:23:06;101680.31;;;1.78;81.38
71344;BME280;59146;43.850;25.948;2023-01-29T06:25:31;101636.72;;;1.48;82.17
71344;BME280;59146;43.850;25.948;2023-01-29T06:27:57;101680.28;;;1.86;81.66
71344;BME280;59146;43.850;25.948;2023-01-29T06:30:22;101631.50;;;1.60;82.01
71344;BME280;59146;43.850;25.948;2023-01-29T06:32:48;101669.03;;;1.97;81.74
71344;BME280;59146;43.850;25.948;2023-01-29T06:35:13;101671.53;;;2.08;80.69
71344;BME280;59146;43.850;25.948;2023-01-29T06:37:38;101639.13;;;1.77;81.31
71344;BME280;59146;43.850;25.948;2023-01-29T06:40:04;101618.72;;;1.48;82.31
71344;BME280;59146;43.850;25.948;2023-01-29T06:42:30;101691.50;;;1.77;83.64
71344;BME280;59146;43.850;25.948;2023-01-29T06:44:56;101599.81;;;1.52;82.59
71344;BME280;59146;43.850;25.948;2023-01-29T06:47:22;101672.38;;;2.11;81.90
71344;BME280;59146;43.850;25.948;2023-01-29T06:49:49;101706.78;;;2.07;82.23
71344;BME280;59146;43.850;25.948;2023-01-29T06:52:14;101654.69;;;1.63;84.55
71344;BME280;59146;43.850;25.948;2023-01-29T06:54:40;101689.59;;;2.03;84.01
71344;BME280;59146;43.850;25.948;2023-01-29T06:57:05;101632.91;;;2.06;82.86
71344;BME280;59146;43.850;25.948;2023-01-29T06:59:30;101666.84;;;2.54;81.37
71344;BME280;59146;43.850;25.948;2023-01-29T07:01:56;101651.69;;;2.16;81.33
71344;BME280;59146;43.850;25.948;2023-01-29T07:04:21;101617.53;;;1.91;82.55
71344;BME280;59146;43.850;25.948;2023-01-29T07:06:47;101686.59;;;2.56;82.08
71344;BME280;59146;43.850;25.948;2023-01-29T07:09:12;101677.00;;;2.72;80.62
71344;BME280;59146;43.850;25.948;2023-01-29T07:11:38;101673.38;;;2.89;79.42
71344;BME280;59146;43.850;25.948;2023-01-29T07:14:04;101563.63;;;1.72;80.53
71344;BME280;59146;43.850;25.948;2023-01-29T07:16:29;101689.22;;;2.53;79.76
71344;BME280;59146;43.850;25.948;2023-01-29T07:18:55;101721.72;;;2.74;81.19
71344;BME280;59146;43.850;25.948;2023-01-29T07:21:21;101712.91;;;2.93;81.57
71344;BME280;59146;43.850;25.948;2023-01-29T07:23:46;101658.09;;;2.70;81.63
71344;BME280;59146;43.850;25.948;2023-01-29T07:26:12;101711.69;;;3.26;78.69
71344;BME280;59146;43.850;25.948;2023-01-29T07:28:38;101696.38;;;3.10;78.85
71344;BME280;59146;43.850;25.948;2023-01-29T07:31:04;101694.72;;;3.05;79.53
71344;BME280;59146;43.850;25.948;2023-01-29T07:33:30;101726.38;;;3.22;80.08
71344;BME280;59146;43.850;25.948;2023-01-29T07:35:56;101675.81;;;3.00;78.58
71344;BME280;59146;43.850;25.948;2023-01-29T07:38:21;101715.88;;;3.36;77.26
71344;BME280;59146;43.850;25.948;2023-01-29T07:40:47;101656.47;;;2.61;77.72
71344;BME280;59146;43.850;25.948;2023-01-29T07:43:13;101685.72;;;2.62;79.21
71344;BME280;59146;43.850;25.948;2023-01-29T07:45:39;101688.25;;;2.63;79.91
71344;BME280;59146;43.850;25.948;2023-01-29T07:48:06;101634.13;;;2.62;78.37
71344;BME280;59146;43.850;25.948;2023-01-29T07:50:33;101718.75;;;3.11;76.94
71344;BME280;59146;43.850;25.948;2023-01-29T07:52:59;101719.75;;;2.97;78.72
71344;BME280;59146;43.850;25.948;2023-01-29T07:55:25;101674.44;;;2.69;79.87
71344;BME280;59146;43.850;25.948;2023-01-29T07:57:56;101710.81;;;3.28;78.09
71344;BME280;59146;43.850;25.948;2023-01-29T08:00:22;101672.94;;;3.27;76.95
71344;BME280;59146;43.850;25.948;2023-01-29T08:02:47;101712.19;;;3.55;77.40
71344;BME280;59146;43.850;25.948;2023-01-29T08:05:12;101555.09;;;2.55;76.75
71344;BME280;59146;43.850;25.948;2023-01-29T08:07:38;101641.31;;;3.10;77.19
71344;BME280;59146;43.850;25.948;2023-01-29T08:10:04;101746.16;;;3.90;76.79
71344;BME280;59146;43.850;25.948;2023-01-29T08:12:29;101722.28;;;3.74;77.62
71344;BME280;59146;43.850;25.948;2023-01-29T08:14:55;101739.25;;;3.93;76.78
71344;BME280;59146;43.850;25.948;2023-01-29T08:17:20;101761.72;;;3.85;77.18
71344;BME280;59146;43.850;25.948;2023-01-29T08:19:46;101762.78;;;3.72;77.68
71344;BME280;59146;43.850;25.948;2023-01-29T08:22:11;101734.66;;;3.48;78.69
71344;BME280;59146;43.850;25.948;2023-01-29T08:24:37;101694.41;;;3.29;78.67
71344;BME280;59146;43.850;25.948;2023-01-29T08:27:02;101687.25;;;3.52;77.72
71344;BME280;59146;43.850;25.948;2023-01-29T08:29:28;101719.38;;;3.30;78.17
71344;BME280;59146;43.850;25.948;2023-01-29T08:31:53;101767.06;;;3.73;79.58
71344;BME280;59146;43.850;25.948;2023-01-29T08:34:19;101729.06;;;3.81;77.01
71344;BME280;59146;43.850;25.948;2023-01-29T08:36:44;101724.81;;;3.79;76.26
71344;BME280;59146;43.850;25.948;2023-01-29T08:39:11;101744.22;;;3.43;77.81
71344;BME280;59146;43.850;25.948;2023-01-29T08:41:37;101760.41;;;3.54;79.95
71344;BME280;59146;43.850;25.948;2023-01-29T08:44:02;101717.34;;;3.58;78.88
71344;BME280;59146;43.850;25.948;2023-01-29T08:46:29;101761.34;;;4.14;77.34
71344;BME280;59146;43.850;25.948;2023-01-29T08:48:54;101748.41;;;4.16;76.06
71344;BME280;59146;43.850;25.948;2023-01-29T08:51:20;101762.75;;;3.74;77.11
71344;BME280;59146;43.850;25.948;2023-01-29T08:53:46;101749.88;;;3.72;76.95
71344;BME280;59146;43.850;25.948;2023-01-29T08:56:12;101780.81;;;3.75;77.42
71344;BME280;59146;43.850;25.948;2023-01-29T08:58:37;101722.94;;;3.21;79.05
71344;BME280;59146;43.850;25.948;2023-01-29T09:01:08;101749.56;;;3.25;79.30
71344;BME280;59146;43.850;25.948;2023-01-29T09:03:34;101774.47;;;3.29;78.85
71344;BME280;59146;43.850;25.948;2023-01-29T09:05:59;101766.78;;;3.26;79.51
71344;BME280;59146;43.850;25.948;2023-01-29T09:08:25;101682.69;;;2.11;81.09
71344;BME280;59146;43.850;25.948;2023-01-29T09:10:50;101793.13;;;2.67;83.08
71344;BME280;59146;43.850;25.948;2023-01-29T09:13:15;101769.94;;;2.63;83.07
71344;BME280;59146;43.850;25.948;2023-01-29T09:15:41;101787.09;;;2.70;82.95
71344;BME280;59146;43.850;25.948;2023-01-29T09:18:06;101794.84;;;2.70;83.92
71344;BME280;59146;43.850;25.948;2023-01-29T09:20:32;101786.38;;;2.50;84.04
71344;BME280;59146;43.850;25.948;2023-01-29T09:23:03;101767.34;;;2.64;84.08
71344;BME280;59146;43.850;25.948;2023-01-29T09:25:28;101787.81;;;2.88;83.63
71344;BME280;59146;43.850;25.948;2023-01-29T09:27:53;101727.00;;;2.59;82.91
71344;BME280;59146;43.850;25.948;2023-01-29T09:30:19;101740.97;;;2.32;84.91
71344;BME280;59146;43.850;25.948;2023-01-29T09:32:44;101714.19;;;2.48;84.49
71344;BME280;59146;43.850;25.948;2023-01-29T09:35:10;101776.41;;;3.12;83.61
71344;BME280;59146;43.850;25.948;2023-01-29T09:37:35;101703.50;;;2.89;82.39
71344;BME280;59146;43.850;25.948;2023-01-29T09:40:00;101767.56;;;3.33;82.34
71344;BME280;59146;43.850;25.948;2023-01-29T09:42:37;101760.53;;;3.45;81.92
71344;BME280;59146;43.850;25.948;2023-01-29T09:45:20;101740.16;;;3.19;82.09
71344;BME280;59146;43.850;25.948;2023-01-29T09:47:49;101707.63;;;3.02;82.16
71344;BME280;59146;43.850;25.948;2023-01-29T09:50:22;101763.84;;;3.58;81.65
71344;BME280;59146;43.850;25.948;2023-01-29T09:52:58;101758.53;;;3.68;80.53
71344;BME280;59146;43.850;25.948;2023-01-29T09:55:27;101704.00;;;3.21;80.79
71344;BME280;59146;43.850;25.948;2023-01-29T09:57:57;101685.31;;;2.98;80.84
71344;BME280;59146;43.850;25.948;2023-01-29T10:00:28;101566.63;;;2.22;81.81
71344;BME280;59146;43.850;25.948;2023-01-29T10:05:54;101744.22;;;3.43;80.44
71344;BME280;59146;43.850;25.948;2023-01-29T10:14:21;101696.91;;;3.38;80.96
71344;BME280;59146;43.850;25.948;2023-01-29T10:25:44;101621.69;;;2.94;80.83
71344;BME280;59146;43.850;25.948;2023-01-29T10:28:20;101694.91;;;3.60;80.77
71344;BME280;59146;43.850;25.948;2023-01-29T10:30:49;101729.97;;;3.77;80.08
71344;BME280;59146;43.850;25.948;2023-01-29T10:33:19;101713.06;;;3.54;80.17
71344;BME280;59146;43.850;25.948;2023-01-29T10:35:50;101675.00;;;2.98;80.93
71344;BME280;59146;43.850;25.948;2023-01-29T10:40:57;101718.09;;;2.93;82.85
71344;BME280;59146;43.850;25.948;2023-01-29T10:56:59;101711.00;;;3.80;80.04
71344;BME280;59146;43.850;25.948;2023-01-29T11:02:01;101618.09;;;3.07;79.86
71344;BME280;59146;43.850;25.948;2023-01-29T11:04:29;101701.78;;;3.61;81.16
71344;BME280;59146;43.850;25.948;2023-01-29T11:06:55;101609.53;;;3.05;79.93
71344;BME280;59146;43.850;25.948;2023-01-29T11:09:35;101612.72;;;3.23;79.87
71344;BME280;59146;43.850;25.948;2023-01-29T11:12:27;101698.13;;;3.75;79.86
71344;BME280;59146;43.850;25.948;2023-01-29T11:15:01;101698.53;;;3.45;80.63
71344;BME280;59146;43.850;25.948;2023-01-29T11:17:29;101672.94;;;3.27;81.40
71344;BME280;59146;43.850;25.948;2023-01-29T11:19:55;101693.47;;;3.36;81.50
71344;BME280;59146;43.850;25.948;2023-01-29T11:22:25;101672.84;;;3.33;81.17
71344;BME280;59146;43.850;25.948;2023-01-29T11:25:18;101678.16;;;3.21;80.81
71344;BME280;59146;43.850;25.948;2023-01-29T11:27:51;101690.09;;;3.31;82.63
71344;BME280;59146;43.850;25.948;2023-01-29T11:30:26;101629.94;;;3.23;81.34
71344;BME280;59146;43.850;25.948;2023-01-29T11:33:18;101698.28;;;3.66;80.83
71344;BME280;59146;43.850;25.948;2023-01-29T11:35:44;101640.50;;;3.05;80.97
71344;BME280;59146;43.850;25.948;2023-01-29T11:38:27;101703.28;;;3.08;82.11
71344;BME280;59146;43.850;25.948;2023-01-29T11:41:13;101662.16;;;2.92;82.88
71344;BME280;59146;43.850;25.948;2023-01-29T11:43:39;101664.47;;;3.16;82.90
71344;BME280;59146;43.850;25.948;2023-01-29T11:46:10;101662.72;;;3.18;81.23
71344;BME280;59146;43.850;25.948;2023-01-29T11:48:46;101643.91;;;3.10;81.43
71344;BME280;59146;43.850;25.948;2023-01-29T11:51:23;101650.25;;;2.79;82.78
71344;BME280;59146;43.850;25.948;2023-01-29T11:53:58;101651.00;;;2.90;83.43
71344;BME280;59146;43.850;25.948;2023-01-29T11:56:27;101685.88;;;3.26;82.87
71344;BME280;59146;43.850;25.948;2023-01-29T11:58:54;101663.78;;;3.00;82.38
71344;BME280;59146;43.850;25.948;2023-01-29T12:01:36;101647.50;;;2.97;82.85
71344;BME280;59146;43.850;25.948;2023-01-29T12:04:14;101638.00;;;2.99;83.18
71344;BME280;59146;43.850;25.948;2023-01-29T12:06:43;101589.91;;;2.92;83.45
71344;BME280;59146;43.850;25.948;2023-01-29T12:09:18;101599.13;;;3.11;81.67
71344;BME280;59146;43.850;25.948;2023-01-29T12:11:46;101587.09;;;3.08;81.65
71344;BME280;59146;43.850;25.948;2023-01-29T12:14:32;101638.59;;;3.22;81.05
71344;BME280;59146;43.850;25.948;2023-01-29T12:17:18;101659.06;;;3.37;81.91
71344;BME280;59146;43.850;25.948;2023-01-29T12:19:55;101657.25;;;3.42;81.05
71344;BME280;59146;43.850;25.948;2023-01-29T12:22:32;101646.97;;;3.39;81.28
71344;BME280;59146;43.850;25.948;2023-01-29T12:25:11;101503.59;;;2.46;81.30
71344;BME280;59146;43.850;25.948;2023-01-29T12:30:46;101660.28;;;3.06;84.13
71344;BME280;59146;43.850;25.948;2023-01-29T12:33:27;101667.03;;;3.17;83.51
71344;BME280;59146;43.850;25.948;2023-01-29T12:36:01;101601.28;;;2.76;82.47
71344;BME280;59146;43.850;25.948;2023-01-29T12:38:31;101614.22;;;2.74;83.13
71344;BME280;59146;43.850;25.948;2023-01-29T12:41:06;101608.19;;;2.71;83.36
71344;BME280;59146;43.850;25.948;2023-01-29T12:43:39;101598.97;;;2.50;83.25
71344;BME280;59146;43.850;25.948;2023-01-29T12:46:24;101590.16;;;2.71;82.49
71344;BME280;59146;43.850;25.948;2023-01-29T12:48:51;101627.81;;;2.87;81.98
71344;BME280;59146;43.850;25.948;2023-01-29T12:51:22;101638.25;;;2.76;82.69
71344;BME280;59146;43.850;25.948;2023-01-29T12:54:03;101656.13;;;2.93;83.35
71344;BME280;59146;43.850;25.948;2023-01-29T12:56:38;101647.44;;;3.00;83.05
71344;BME280;59146;43.850;25.948;2023-01-29T12:59:19;101677.66;;;2.90;83.03
71344;BME280;59146;43.850;25.948;2023-01-29T13:01:52;101618.94;;;2.28;83.89
71344;BME280;59146;43.850;25.948;2023-01-29T13:04:40;101677.72;;;2.86;84.17
71344;BME280;59146;43.850;25.948;2023-01-29T13:07:22;101612.66;;;2.60;83.54
71344;BME280;59146;43.850;25.948;2023-01-29T13:09:53;101651.28;;;2.63;83.71
71344;BME280;59146;43.850;25.948;2023-01-29T13:12:20;101623.09;;;2.46;83.34
71344;BME280;59146;43.850;25.948;2023-01-29T13:14:56;101596.50;;;2.39;83.88
71344;BME280;59146;43.850;25.948;2023-01-29T13:17:35;101634.88;;;2.68;83.35
71344;BME280;59146;43.850;25.948;2023-01-29T13:20:14;101657.16;;;2.77;83.56
71344;BME280;59146;43.850;25.948;2023-01-29T13:22:42;101665.59;;;2.92;82.70
71344;BME280;59146;43.850;25.948;2023-01-29T13:25:17;101683.75;;;2.86;82.97
71344;BME280;59146;43.850;25.948;2023-01-29T13:27:44;101658.94;;;2.72;83.54
71344;BME280;59146;43.850;25.948;2023-01-29T13:30:32;101702.47;;;3.05;83.67
71344;BME280;59146;43.850;25.948;2023-01-29T13:33:02;101638.16;;;2.84;82.25
71344;BME280;59146;43.850;25.948;2023-01-29T13:35:39;101627.06;;;2.76;82.47
71344;BME280;59146;43.850;25.948;2023-01-29T13:38:14;101686.31;;;2.86;83.29
71344;BME280;59146;43.850;25.948;2023-01-29T13:40:49;101617.06;;;2.49;83.21
71344;BME280;59146;43.850;25.948;2023-01-29T13:43:20;101690.31;;;3.13;83.27
71344;BME280;59146;43.850;25.948;2023-01-29T13:45:47;101675.81;;;3.00;82.40
71344;BME280;59146;43.850;25.948;2023-01-29T13:50:50;101533.41;;;1.90;84.02
71344;BME280;59146;43.850;25.948;2023-01-29T13:53:24;101598.09;;;2.53;83.53
71344;BME280;59146;43.850;25.948;2023-01-29T13:55:51;101695.53;;;3.08;82.86
71344;BME280;59146;43.850;25.948;2023-01-29T14:01:08;101655.38;;;2.83;83.71
71344;BME280;59146;43.850;25.948;2023-01-29T14:03:44;101643.47;;;2.72;83.05
71344;BME280;59146;43.850;25.948;2023-01-29T14:06:10;101695.63;;;3.01;83.27
71344;BME280;59146;43.850;25.948;2023-01-29T14:08:43;101630.72;;;2.57;83.61
71344;BME280;59146;43.850;25.948;2023-01-29T14:13:37;101628.97;;;2.59;83.79
71344;BME280;59146;43.850;25.948;2023-01-29T14:18:33;101670.59;;;3.07;82.60
71344;BME280;59146;43.850;25.948;2023-01-29T14:21:00;101691.38;;;2.97;82.77
71344;BME280;59146;43.850;25.948;2023-01-29T14:23:42;101691.44;;;2.89;83.81
71344;BME280;59146;43.850;25.948;2023-01-29T14:26:32;101629.09;;;2.47;83.89
71344;BME280;59146;43.850;25.948;2023-01-29T14:29:14;101670.06;;;2.77;83.94
71344;BME280;59146;43.850;25.948;2023-01-29T14:31:43;101654.63;;;2.74;83.76
71344;BME280;59146;43.850;25.948;2023-01-29T14:34:27;101671.91;;;2.66;84.80
71344;BME280;59146;43.850;25.948;2023-01-29T14:36:56;101684.59;;;2.87;85.08
71344;BME280;59146;43.850;25.948;2023-01-29T14:39:36;101701.63;;;3.00;84.35